Time;durP1;ratioP1;P1;durP2;ratioP2;P2;SDS_P1;SDS_P2;PMS_P1;PMS_P2;Temp;Humidity;BMP_temperature;BMP_pressure;BME280_temperature;BME280_humidity;BME280_pressure;Samples;Min_cycle;Max_cycle;Signal;HPM_P1;HPM_P2
2022/07/27 00:01:47;;;;;;;4.37;3.87;;;;;;;19.82;78.25;98088.75;4123205;28;20648;-80
2022/07/27 00:03:53;;;;;;;4.47;3.80;;;;;;;19.79;78.79;98091.72;4108753;28;20695;-80
2022/07/27 00:05:56;;;;;;;4.30;3.90;;;;;;;19.77;78.32;98093.69;4104984;28;20699;-80
2022/07/27 00:07:59;;;;;;;4.40;4.00;;;;;;;19.76;79.70;98097.31;4112410;28;20849;-80
2022/07/27 00:10:03;;;;;;;3.70;3.40;;;;;;;19.74;79.59;98099.31;4127281;28;21281;-80
2022/07/27 00:12:06;;;;;;;5.00;3.97;;;;;;;19.74;79.79;98099.31;4128163;28;20693;-80
2022/07/27 00:14:11;;;;;;;4.10;3.70;;;;;;;19.74;78.89;98096.66;4110227;28;20633;-80
2022/07/27 00:16:14;;;;;;;4.47;4.07;;;;;;;19.75;78.21;98097.50;4110255;28;20713;-80
2022/07/27 00:18:17;;;;;;;7.13;3.90;;;;;;;19.72;79.37;98103.91;4125616;28;20671;-80
2022/07/27 00:20:20;;;;;;;4.83;4.00;;;;;;;19.68;78.84;98094.66;4127252;28;20704;-80
2022/07/27 00:22:29;;;;;;;4.07;3.50;;;;;;;19.66;79.81;98096.63;4123292;28;21183;-80
2022/07/27 00:24:32;;;;;;;4.90;3.90;;;;;;;19.67;78.40;98100.94;4109932;28;20640;-80
2022/07/27 00:26:35;;;;;;;4.17;3.70;;;;;;;19.66;79.68;98093.97;4111684;28;20641;-80
2022/07/27 00:28:38;;;;;;;4.40;4.00;;;;;;;19.64;79.75;98103.09;4119547;28;20710;-81
2022/07/27 00:30:43;;;;;;;5.07;4.37;;;;;;;19.63;78.75;98101.41;4125552;28;20648;-80
2022/07/27 00:32:46;;;;;;;4.50;3.87;;;;;;;19.62;79.85;98102.41;4125784;28;20643;-80
2022/07/27 00:34:49;;;;;;;4.33;3.93;;;;;;;19.60;78.73;98097.25;4128329;28;20638;-80
2022/07/27 00:36:52;;;;;;;4.23;3.83;;;;;;;19.61;78.92;98096.28;4126222;28;20704;-80
2022/07/27 00:38:55;;;;;;;5.40;4.00;;;;;;;19.60;79.42;98099.09;4111661;28;21262;-81
2022/07/27 00:40:59;;;;;;;5.13;4.10;;;;;;;19.58;79.66;98088.66;4126858;28;20646;-81
2022/07/27 00:43:02;;;;;;;4.40;4.00;;;;;;;19.55;79.57;98096.09;4109263;28;20682;-80
2022/07/27 00:45:05;;;;;;;4.73;4.20;;;;;;;19.46;79.97;98082.00;4094438;28;20629;-80
2022/07/27 00:47:10;;;;;;;5.13;4.50;;;;;;;19.43;80.72;98090.25;4129248;28;21252;-80
2022/07/27 00:49:13;;;;;;;5.00;4.50;;;;;;;19.41;80.95;98091.41;4108748;28;20667;-80
2022/07/27 00:51:20;;;;;;;4.37;3.97;;;;;;;19.38;80.43;98083.81;4113455;28;20659;-80
2022/07/27 00:53:23;;;;;;;6.40;4.30;;;;;;;19.38;81.20;98075.88;4125467;28;21128;-80
2022/07/27 00:55:26;;;;;;;4.23;3.83;;;;;;;19.37;81.27;98086.59;4124108;28;20642;-80
2022/07/27 00:57:29;;;;;;;5.20;4.00;;;;;;;19.33;81.45;98093.19;4110950;28;20727;-80
2022/07/27 00:59:32;;;;;;;5.23;4.30;;;;;;;19.34;81.89;98089.56;4111181;28;20993;-80
2022/07/27 01:01:36;;;;;;;4.63;3.87;;;;;;;19.39;81.52;98094.22;4106851;28;20640;-80
2022/07/27 01:03:40;;;;;;;4.70;3.93;;;;;;;19.43;80.42;98086.78;4111269;28;20726;-80
2022/07/27 01:05:43;;;;;;;5.47;4.50;;;;;;;19.44;79.72;98075.22;4107949;28;20691;-80
2022/07/27 01:07:47;;;;;;;4.47;4.07;;;;;;;19.44;79.89;98076.03;4105985;28;20625;-80
2022/07/27 01:09:56;;;;;;;5.77;4.53;;;;;;;19.42;79.10;98069.25;4107604;28;20656;-80
2022/07/27 01:12:00;;;;;;;5.07;4.57;;;;;;;19.38;79.83;98067.94;4106847;28;20643;-80
2022/07/27 01:14:04;;;;;;;5.00;4.50;;;;;;;19.36;80.93;98071.72;4123067;28;20640;-80
2022/07/27 01:16:07;;;;;;;4.83;4.27;;;;;;;19.33;80.49;98072.84;4110031;28;20656;-80
2022/07/27 01:18:11;;;;;;;4.43;4.03;;;;;;;19.35;80.61;98070.03;4108562;28;21049;-80
2022/07/27 01:20:16;;;;;;;4.67;4.27;;;;;;;19.36;79.52;98069.06;4108602;28;20639;-80
2022/07/27 01:22:21;;;;;;;5.37;4.57;;;;;;;19.32;80.71;98060.63;4110816;28;20648;-80
2022/07/27 01:24:24;;;;;;;4.40;4.00;;;;;;;19.29;80.59;98068.88;4126804;28;20643;-80
2022/07/27 01:26:27;;;;;;;4.70;4.27;;;;;;;19.26;80.43;98068.34;4110440;28;21215;-80
2022/07/27 01:28:30;;;;;;;4.50;4.10;;;;;;;19.21;81.18;98071.47;4111041;28;20652;-80
2022/07/27 01:30:34;;;;;;;5.20;4.60;;;;;;;19.17;79.77;98061.34;4127941;28;20642;-80
2022/07/27 01:32:37;;;;;;;5.03;4.17;;;;;;;19.14;81.34;98059.88;4111610;28;20641;-80
2022/07/27 01:34:40;;;;;;;4.50;4.10;;;;;;;19.09;81.13;98064.81;4107263;28;20628;-80
2022/07/27 01:36:44;;;;;;;4.97;4.37;;;;;;;19.06;81.25;98067.78;4124423;28;21060;-80
2022/07/27 01:38:49;;;;;;;5.10;4.60;;;;;;;19.03;80.70;98069.88;4124911;28;20643;-80
2022/07/27 01:40:54;;;;;;;5.17;4.67;;;;;;;19.01;81.04;98063.91;4126502;28;20747;-80
2022/07/27 01:42:57;;;;;;;5.40;4.50;;;;;;;19.02;80.66;98062.97;4107668;28;20648;-80
2022/07/27 01:45:00;;;;;;;5.10;4.60;;;;;;;19.04;80.30;98055.69;4123337;28;20742;-80
2022/07/27 01:47:03;;;;;;;5.10;4.60;;;;;;;19.06;81.39;98049.28;4122468;28;20627;-80
2022/07/27 01:49:16;;;;;;;6.47;4.40;;;;;;;19.06;81.55;98038.69;4124355;28;21233;-80
2022/07/27 01:51:20;;;;;;;5.50;5.00;;;;;;;19.03;80.84;98040.81;4107730;28;21223;-80
2022/07/27 01:53:23;;;;;;;6.20;4.40;;;;;;;18.95;80.39;98040.72;4123969;28;21359;-80
2022/07/27 01:55:27;;;;;;;4.93;4.53;;;;;;;18.90;81.14;98040.38;4126270;28;20627;-80
2022/07/27 01:57:40;;;;;;;4.90;4.40;;;;;;;18.87;81.40;98048.63;4124617;28;21329;-80
2022/07/27 01:59:44;;;;;;;5.40;4.90;;;;;;;18.85;81.50;98052.41;4110698;28;20707;-80
2022/07/27 02:01:47;;;;;;;4.73;4.27;;;;;;;18.85;81.30;98050.56;4108926;28;20638;-80
2022/07/27 02:03:50;;;;;;;5.37;4.87;;;;;;;18.83;81.78;98046.44;4127074;28;20641;-80
2022/07/27 02:05:53;;;;;;;5.30;4.80;;;;;;;18.80;81.51;98036.19;4112312;28;20715;-80
2022/07/27 02:07:56;;;;;;;4.70;4.30;;;;;;;18.77;81.78;98032.03;4112509;28;20689;-80
2022/07/27 02:09:59;;;;;;;4.80;4.30;;;;;;;18.73;81.78;98035.16;4125608;28;20950;-80
2022/07/27 02:14:24;;;;;;;4.93;4.43;;;;;;;18.54;82.07;98025.63;4105401;28;21197;-80
2022/07/27 02:16:27;;;;;;;7.10;5.13;;;;;;;18.48;81.53;98023.59;4108827;28;21057;-80
2022/07/27 02:18:31;;;;;;;5.73;4.80;;;;;;;18.46;82.54;98022.09;4126155;28;20701;-79
2022/07/27 02:20:41;;;;;;;5.67;5.17;;;;;;;18.42;82.71;98018.13;4125612;28;20677;-80
2022/07/27 02:22:44;;;;;;;5.13;4.43;;;;;;;18.42;82.60;98020.75;4112580;28;20643;-80
2022/07/27 02:24:47;;;;;;;6.93;5.30;;;;;;;18.40;82.09;98033.28;4109040;28;21545;-80
2022/07/27 02:26:51;;;;;;;6.10;5.33;;;;;;;18.39;82.79;98036.06;4109963;28;21057;-80
2022/07/27 02:28:55;;;;;;;5.73;5.13;;;;;;;18.35;82.58;98040.00;4129549;28;21253;-81
2022/07/27 02:30:59;;;;;;;5.30;4.80;;;;;;;18.31;83.66;98033.38;4125724;28;20645;-80
2022/07/27 02:33:02;;;;;;;5.93;5.17;;;;;;;18.30;82.88;98035.19;4109758;28;20660;-80
2022/07/27 02:35:06;;;;;;;7.63;5.20;;;;;;;18.32;82.90;98035.84;4107137;28;20628;-80
2022/07/27 02:37:22;;;;;;;6.40;4.83;;;;;;;18.24;83.33;98034.97;4111706;28;21016;-80
2022/07/27 02:39:25;;;;;;;5.30;4.80;;;;;;;18.23;83.45;98033.31;4128750;28;20674;-80
2022/07/27 02:41:28;;;;;;;6.27;4.97;;;;;;;18.22;83.70;98036.94;4110971;28;20635;-80
2022/07/27 02:43:33;;;;;;;5.53;5.03;;;;;;;18.16;82.72;98042.81;4095180;28;21803;-80
2022/07/27 02:45:38;;;;;;;5.73;4.97;;;;;;;18.10;82.71;98044.25;4110048;28;20667;-80
2022/07/27 02:47:41;;;;;;;5.23;4.73;;;;;;;18.06;82.94;98040.22;4123688;28;20647;-80
2022/07/27 02:49:44;;;;;;;7.10;5.77;;;;;;;18.05;83.05;98051.75;4110410;28;20656;-80
2022/07/27 02:51:49;;;;;;;5.80;5.30;;;;;;;18.02;83.48;98051.25;4111606;28;20664;-80
2022/07/27 02:53:52;;;;;;;5.67;5.10;;;;;;;17.98;83.31;98037.53;4111006;28;20644;-80
2022/07/27 02:55:55;;;;;;;6.47;4.60;;;;;;;17.98;83.87;98047.25;4111871;28;21221;-80
2022/07/27 02:57:58;;;;;;;5.70;5.10;;;;;;;17.96;83.49;98057.13;4124171;28;20645;-80
2022/07/27 03:00:01;;;;;;;5.57;5.07;;;;;;;17.91;82.98;98050.66;4109423;28;21255;-80
2022/07/27 03:02:06;;;;;;;6.50;5.00;;;;;;;17.84;82.60;98052.22;4091093;28;21131;-80
2022/07/27 03:04:09;;;;;;;6.70;5.30;;;;;;;17.83;83.39;98047.91;4105601;28;20653;-80
2022/07/27 03:06:13;;;;;;;5.50;5.00;;;;;;;17.77;84.09;98049.38;4126577;28;21330;-80
2022/07/27 03:08:16;;;;;;;5.60;5.10;;;;;;;17.77;83.04;98052.00;4108350;28;21256;-80
2022/07/27 03:10:20;;;;;;;6.20;5.60;;;;;;;17.73;83.30;98045.38;4090920;28;20823;-80
2022/07/27 03:12:23;;;;;;;5.87;5.30;;;;;;;17.69;84.12;98041.34;4092977;28;21067;-80
2022/07/27 03:14:26;;;;;;;5.30;4.70;;;;;;;17.69;84.22;98044.00;4105628;28;21207;-80
2022/07/27 03:16:29;;;;;;;5.27;4.80;;;;;;;17.64;84.31;98040.16;4125721;28;20629;-80
2022/07/27 03:18:34;;;;;;;5.70;5.10;;;;;;;17.57;82.80;98041.72;4108010;28;21201;-80
2022/07/27 03:20:37;;;;;;;5.50;5.03;;;;;;;17.51;83.00;98039.69;4110736;28;21369;-80
2022/07/27 03:22:41;;;;;;;5.40;4.90;;;;;;;17.47;82.88;98036.50;4107457;28;20646;-80
2022/07/27 03:24:44;;;;;;;5.40;4.60;;;;;;;17.46;83.86;98034.84;4127099;28;21236;-80
2022/07/27 03:26:47;;;;;;;6.50;5.23;;;;;;;17.47;83.84;98039.16;4125144;28;20744;-80
2022/07/27 03:28:50;;;;;;;5.00;4.50;;;;;;;17.51;83.77;98047.59;4109511;28;21078;-79
2022/07/27 03:30:53;;;;;;;5.40;4.90;;;;;;;17.55;84.00;98041.06;4123856;28;21228;-79
2022/07/27 03:32:57;;;;;;;5.43;4.50;;;;;;;17.62;85.19;98045.59;4109054;28;20635;-79
2022/07/27 03:35:02;;;;;;;6.50;5.27;;;;;;;17.65;84.98;98045.28;4127888;28;20751;-79
2022/07/27 03:37:05;;;;;;;6.00;5.20;;;;;;;17.68;85.04;98052.06;4129462;28;21243;-79
2022/07/27 03:39:08;;;;;;;5.37;4.87;;;;;;;17.57;83.79;98045.19;4112572;28;20641;-79
2022/07/27 03:41:12;;;;;;;7.23;5.50;;;;;;;17.52;84.05;98046.63;4108250;28;20636;-79
2022/07/27 03:43:15;;;;;;;5.40;4.90;;;;;;;17.51;84.88;98035.25;4111764;28;20641;-79
2022/07/27 03:45:18;;;;;;;6.33;4.90;;;;;;;17.50;84.38;98038.84;4125373;28;20631;-80
2022/07/27 03:47:22;;;;;;;5.40;4.90;;;;;;;17.48;84.66;98045.25;4130294;28;20642;-79
2022/07/27 03:49:25;;;;;;;6.00;4.73;;;;;;;17.49;85.92;98031.91;4113445;28;20645;-79
2022/07/27 03:51:29;;;;;;;5.20;4.70;;;;;;;17.51;84.47;98037.88;4114821;28;21228;-79
2022/07/27 03:53:33;;;;;;;5.90;5.30;;;;;;;17.49;86.00;98045.09;4130048;28;21294;-79
2022/07/27 03:55:36;;;;;;;6.03;4.97;;;;;;;17.52;85.30;98046.63;4112636;28;20650;-79
2022/07/27 03:57:40;;;;;;;5.90;5.40;;;;;;;17.54;85.89;98052.56;4111679;28;20658;-80
2022/07/27 03:59:43;;;;;;;11.20;5.50;;;;;;;17.56;85.23;98054.09;4127251;28;20622;-79
2022/07/27 04:01:46;;;;;;;6.47;5.10;;;;;;;17.57;85.98;98055.72;4107712;28;20650;-79
2022/07/27 04:03:49;;;;;;;5.27;4.73;;;;;;;17.58;85.46;98052.13;4128612;28;20637;-79
2022/07/27 04:05:53;;;;;;;7.67;5.33;;;;;;;17.59;84.72;98063.50;4115677;28;20677;-79
2022/07/27 04:07:57;;;;;;;5.67;5.03;;;;;;;17.58;84.69;98062.69;4110097;28;20641;-80
2022/07/27 04:10:00;;;;;;;6.10;5.60;;;;;;;17.59;85.04;98069.63;4130415;28;20633;-79
2022/07/27 04:12:06;;;;;;;6.33;5.70;;;;;;;17.62;84.86;98079.88;4112901;28;21809;-79
2022/07/27 04:14:09;;;;;;;6.57;5.70;;;;;;;17.65;85.02;98074.31;4111859;28;20654;-79
2022/07/27 04:16:15;;;;;;;6.10;5.50;;;;;;;17.68;84.66;98075.78;4108814;28;20656;-80
2022/07/27 04:18:18;;;;;;;6.73;6.13;;;;;;;17.71;85.12;98080.78;4127262;28;21032;-80
2022/07/27 04:20:21;;;;;;;6.30;5.70;;;;;;;17.73;84.85;98077.03;4125462;28;20684;-79
2022/07/27 04:22:25;;;;;;;6.70;5.40;;;;;;;17.77;85.19;98069.63;4126015;28;20645;-80
2022/07/27 04:24:29;;;;;;;7.63;5.80;;;;;;;17.80;85.37;98075.47;4128274;28;20636;-81
2022/07/27 04:26:32;;;;;;;6.50;5.90;;;;;;;17.82;84.26;98065.56;4130683;28;20633;-81
2022/07/27 04:28:36;;;;;;;6.50;5.77;;;;;;;17.84;82.94;98073.34;4112420;28;20653;-80
2022/07/27 04:30:39;;;;;;;6.23;5.70;;;;;;;17.85;83.68;98080.28;4126745;28;20660;-80
2022/07/27 04:32:42;;;;;;;5.80;5.30;;;;;;;17.87;84.40;98087.06;4112503;28;20641;-80
2022/07/27 04:34:45;;;;;;;6.37;5.70;;;;;;;17.90;86.16;98094.69;4128157;28;20640;-80
2022/07/27 04:36:50;;;;;;;6.90;6.20;;;;;;;17.92;84.97;98092.75;4128517;28;20721;-82
2022/07/27 04:38:53;;;;;;;8.50;6.20;;;;;;;17.94;84.79;98099.50;4110875;28;20651;-80
2022/07/27 04:40:57;;;;;;;5.87;5.37;;;;;;;17.96;84.35;98099.38;4130570;28;20638;-80
2022/07/27 04:43:01;;;;;;;6.07;5.47;;;;;;;17.99;84.18;98088.50;4125854;28;20647;-79
2022/07/27 04:45:06;;;;;;;6.40;5.80;;;;;;;17.98;83.55;98092.13;4129044;28;20639;-79
2022/07/27 04:47:08;;;;;;;6.50;5.60;;;;;;;18.01;84.34;98097.09;4126038;28;20690;-78
2022/07/27 04:49:11;;;;;;;6.23;5.63;;;;;;;18.04;84.44;98099.44;4113252;28;20640;-80
2022/07/27 04:51:16;;;;;;;5.70;5.20;;;;;;;18.07;84.45;98097.34;4109950;28;20750;-80
2022/07/27 04:53:19;;;;;;;6.57;5.97;;;;;;;18.10;84.66;98097.03;4108088;28;21241;-81
2022/07/27 04:55:23;;;;;;;6.23;5.60;;;;;;;18.13;84.54;98106.47;4113198;28;20693;-80
2022/07/27 04:57:27;;;;;;;8.20;5.80;;;;;;;18.20;84.54;98102.28;4127493;28;20740;-81
2022/07/27 04:59:33;;;;;;;6.53;5.70;;;;;;;18.22;85.06;98105.59;4126829;28;20642;-80
2022/07/27 05:01:36;;;;;;;6.70;6.10;;;;;;;18.24;84.97;98106.28;4112663;28;20740;-81
2022/07/27 05:03:39;;;;;;;7.07;6.23;;;;;;;18.28;85.07;98107.63;4122773;28;20643;-80
2022/07/27 05:05:42;;;;;;;6.70;6.10;;;;;;;18.29;85.34;98107.47;4112649;28;21357;-80
2022/07/27 05:07:53;;;;;;;7.10;5.97;;;;;;;18.32;85.33;98106.34;4128042;28;21280;-80
2022/07/27 05:09:56;;;;;;;7.80;5.53;;;;;;;18.39;85.62;98116.16;4115012;28;21240;-80
2022/07/27 05:11:59;;;;;;;6.63;6.00;;;;;;;18.44;84.74;98111.22;4126533;28;20653;-81
2022/07/27 05:14:03;;;;;;;6.60;6.00;;;;;;;18.43;83.98;98110.41;4110801;28;21154;-80
2022/07/27 05:16:07;;;;;;;6.40;5.80;;;;;;;18.44;85.03;98109.41;4128679;28;20983;-81
2022/07/27 05:18:11;;;;;;;7.40;6.70;;;;;;;18.48;84.72;98115.25;4125745;28;20625;-80
2022/07/27 05:20:14;;;;;;;6.90;5.87;;;;;;;18.53;84.78;98113.78;4126080;28;21273;-81
2022/07/27 05:22:17;;;;;;;6.23;5.63;;;;;;;18.60;84.69;98124.59;4113521;28;20661;-81
2022/07/27 05:24:20;;;;;;;6.80;6.10;;;;;;;18.64;84.69;98121.50;4110107;28;20671;-81
2022/07/27 05:26:24;;;;;;;6.40;5.90;;;;;;;18.70;84.57;98130.59;4127693;28;20649;-80
2022/07/27 05:28:27;;;;;;;7.07;5.80;;;;;;;18.73;84.74;98133.75;4108192;28;20632;-80
2022/07/27 05:30:32;;;;;;;8.67;6.40;;;;;;;18.77;85.12;98134.31;4112513;28;20636;-81
2022/07/27 05:32:35;;;;;;;7.90;6.40;;;;;;;18.82;84.57;98132.84;4109452;28;20659;-81
2022/07/27 05:34:40;;;;;;;6.30;5.60;;;;;;;18.85;84.19;98143.09;4107411;28;20645;-81
2022/07/27 05:36:44;;;;;;;6.67;6.00;;;;;;;18.89;83.89;98140.00;4094921;28;21036;-80
2022/07/27 05:38:47;;;;;;;6.33;5.80;;;;;;;18.93;83.53;98146.63;4124859;28;20626;-80
2022/07/27 05:40:50;;;;;;;7.00;6.40;;;;;;;18.99;83.40;98150.50;4126119;28;20634;-80
2022/07/27 05:42:53;;;;;;;6.67;5.70;;;;;;;19.04;83.89;98154.34;4129483;28;20735;-80
2022/07/27 05:44:56;;;;;;;9.30;6.07;;;;;;;19.09;83.74;98160.03;4124756;28;20686;-81
2022/07/27 05:47:01;;;;;;;7.50;6.10;;;;;;;19.17;82.98;98154.78;4124224;28;20649;-81
2022/07/27 05:49:08;;;;;;;7.00;6.17;;;;;;;19.24;83.29;98160.25;4126265;28;21225;-80
2022/07/27 05:51:12;;;;;;;6.83;5.87;;;;;;;19.30;82.01;98164.94;4123508;28;20683;-80
2022/07/27 05:53:15;;;;;;;6.70;6.00;;;;;;;19.36;82.69;98151.91;4125471;28;20638;-80
2022/07/27 05:55:18;;;;;;;6.83;5.70;;;;;;;19.45;81.79;98161.53;4107801;28;20642;-80
2022/07/27 05:57:21;;;;;;;7.33;6.67;;;;;;;19.46;81.84;98156.09;4112326;28;20715;-80
2022/07/27 05:59:24;;;;;;;6.93;6.33;;;;;;;19.51;81.17;98159.06;4108466;28;20624;-80
2022/07/27 06:01:27;;;;;;;8.13;6.50;;;;;;;19.60;81.63;98157.31;4125305;28;21209;-80
2022/07/27 06:03:32;;;;;;;7.23;6.43;;;;;;;19.68;81.66;98163.47;4108028;28;20694;-80
2022/07/27 06:05:35;;;;;;;8.67;7.87;;;;;;;19.77;81.74;98162.53;4109616;28;20632;-80
2022/07/27 06:09:59;;;;;;;7.73;6.50;;;;;;;19.87;82.20;98165.91;4125212;28;20632;-81
2022/07/27 06:12:02;;;;;;;7.37;6.17;;;;;;;19.89;81.47;98167.41;4112214;28;20643;-80
2022/07/27 06:14:05;;;;;;;7.40;6.50;;;;;;;19.93;82.59;98159.97;4125867;28;21222;-81
2022/07/27 06:16:09;;;;;;;8.60;6.97;;;;;;;20.00;82.92;98167.09;4126447;28;20663;-81
2022/07/27 06:18:16;;;;;;;7.20;6.50;;;;;;;20.07;81.04;98169.94;4110543;28;20636;-80
2022/07/27 06:20:22;;;;;;;8.00;7.20;;;;;;;20.16;81.34;98172.47;4107566;28;20661;-81
2022/07/27 06:22:25;;;;;;;7.60;6.93;;;;;;;20.24;81.92;98179.59;4105920;28;20628;-80
2022/07/27 06:24:28;;;;;;;10.27;6.83;;;;;;;20.32;81.91;98171.66;4106866;28;20648;-80
2022/07/27 06:26:31;;;;;;;7.10;6.50;;;;;;;20.40;80.10;98173.34;4125215;28;20723;-80
2022/07/27 06:28:34;;;;;;;6.90;6.33;;;;;;;20.39;79.95;98169.03;4125596;28;20636;-81
2022/07/27 06:30:37;;;;;;;6.50;5.90;;;;;;;20.39;78.94;98184.91;4109801;28;21050;-81
2022/07/27 06:32:41;;;;;;;6.53;5.90;;;;;;;20.43;79.43;98175.66;4125385;28;20694;-81
2022/07/27 06:34:45;;;;;;;8.70;6.50;;;;;;;20.49;79.29;98169.72;4126395;28;20668;-80
2022/07/27 06:36:51;;;;;;;7.57;6.33;;;;;;;20.49;80.12;98169.72;4108930;28;20637;-81
2022/07/27 06:38:54;;;;;;;7.33;6.63;;;;;;;20.54;80.21;98164.72;4111408;28;20689;-81
2022/07/27 06:40:58;;;;;;;7.17;6.47;;;;;;;20.61;81.04;98167.53;4129387;28;20669;-81
2022/07/27 06:43:01;;;;;;;7.07;6.20;;;;;;;20.67;81.34;98166.88;4122938;28;20797;-81
2022/07/27 06:45:05;;;;;;;8.20;6.37;;;;;;;20.73;81.17;98169.72;4125741;28;20723;-80
2022/07/27 06:47:08;;;;;;;7.30;6.50;;;;;;;20.79;79.66;98174.38;4111840;28;20617;-81
2022/07/27 06:49:12;;;;;;;7.17;6.03;;;;;;;20.83;79.27;98171.22;4109329;28;21222;-81
2022/07/27 06:51:16;;;;;;;6.80;6.20;;;;;;;20.90;79.93;98174.06;4125824;28;20632;-81
2022/07/27 06:53:21;;;;;;;6.90;6.20;;;;;;;20.94;78.81;98178.88;4104973;28;20647;-81
2022/07/27 06:55:24;;;;;;;6.53;5.93;;;;;;;20.98;78.90;98174.88;4124074;28;20636;-81
2022/07/27 06:57:27;;;;;;;7.23;6.60;;;;;;;21.05;80.46;98177.69;4105850;28;20651;-81
2022/07/27 06:59:31;;;;;;;6.83;6.13;;;;;;;21.12;80.05;98170.72;4109088;28;21019;-81
2022/07/27 07:01:45;;;;;;;7.83;6.33;;;;;;;21.18;78.30;98170.88;4106644;28;20625;-81
2022/07/27 07:03:51;;;;;;;6.83;6.00;;;;;;;21.23;79.09;98159.75;4109838;28;20624;-81
2022/07/27 07:05:54;;;;;;;6.80;6.20;;;;;;;21.29;78.46;98160.75;4106245;28;20740;-81
2022/07/27 07:07:58;;;;;;;7.30;6.60;;;;;;;21.34;77.05;98165.56;4128758;28;22116;-80
2022/07/27 07:10:02;;;;;;;8.40;5.90;;;;;;;21.42;77.87;98171.69;4114316;28;20641;-82
2022/07/27 07:12:06;;;;;;;7.60;6.40;;;;;;;21.49;76.84;98163.88;4129479;28;20624;-81
2022/07/27 07:14:10;;;;;;;7.17;6.47;;;;;;;21.53;76.80;98168.69;4112054;28;20633;-81
2022/07/27 07:16:13;;;;;;;10.10;6.23;;;;;;;21.61;76.26;98168.66;4113646;28;21196;-81
2022/07/27 07:18:16;;;;;;;6.40;5.87;;;;;;;21.71;75.77;98169.28;4111709;28;20638;-80
2022/07/27 07:20:19;;;;;;;6.80;6.20;;;;;;;21.78;75.62;98167.59;4121161;28;20725;-81
2022/07/27 07:22:23;;;;;;;6.47;5.60;;;;;;;21.80;74.33;98174.41;4128244;28;20770;-80
2022/07/27 07:24:27;;;;;;;6.40;5.80;;;;;;;21.81;73.65;98173.41;4126433;28;22122;-81
2022/07/27 07:26:31;;;;;;;7.20;6.20;;;;;;;21.86;74.66;98175.53;4127714;28;20716;-81
2022/07/27 07:28:35;;;;;;;6.67;6.07;;;;;;;21.91;73.71;98171.34;4111982;28;21053;-80
2022/07/27 07:30:38;;;;;;;6.30;5.70;;;;;;;21.97;73.62;98172.50;4113295;28;20757;-80
2022/07/27 07:32:41;;;;;;;9.00;6.33;;;;;;;22.05;73.96;98175.13;4112598;28;20649;-80
2022/07/27 07:34:45;;;;;;;6.57;5.97;;;;;;;22.16;74.06;98170.25;4127053;28;20689;-80
2022/07/27 07:36:48;;;;;;;6.27;5.67;;;;;;;22.21;72.96;98167.94;4125522;28;20731;-80
2022/07/27 07:38:52;;;;;;;6.70;5.80;;;;;;;22.24;72.41;98167.56;4129340;28;20645;-80
2022/07/27 07:40:55;;;;;;;9.07;6.43;;;;;;;22.31;72.73;98166.72;4126474;28;20723;-80
2022/07/27 07:43:01;;;;;;;6.70;6.10;;;;;;;22.48;73.12;98170.09;4126460;28;20635;-80
2022/07/27 07:45:05;;;;;;;6.37;5.77;;;;;;;22.70;73.39;98174.56;4127502;28;20780;-80
2022/07/27 07:47:09;;;;;;;6.73;6.13;;;;;;;22.93;72.68;98178.91;4129337;28;21006;-80
2022/07/27 07:49:13;;;;;;;6.70;6.00;;;;;;;23.07;71.76;98175.47;4115233;28;20632;-82
2022/07/27 07:51:17;;;;;;;6.37;5.77;;;;;;;23.17;71.22;98178.69;4127525;28;21478;-82
2022/07/27 07:53:21;;;;;;;8.60;6.07;;;;;;;23.21;71.75;98179.00;4114274;28;20683;-81
2022/07/27 07:55:26;;;;;;;6.47;5.60;;;;;;;23.60;70.42;98173.44;4128788;28;20641;-82
2022/07/27 07:57:31;;;;;;;6.40;5.30;;;;;;;24.15;69.23;98171.97;4109839;28;20649;-82
2022/07/27 07:59:36;;;;;;;9.60;5.60;;;;;;;24.34;68.83;98169.53;4107659;28;21203;-82
2022/07/27 08:01:39;;;;;;;6.67;5.97;;;;;;;24.55;68.70;98178.44;4127979;28;20666;-82
2022/07/27 08:03:42;;;;;;;6.27;5.67;;;;;;;24.58;67.42;98171.88;4109105;28;20666;-82
2022/07/27 08:05:52;;;;;;;6.00;5.50;;;;;;;24.64;68.14;98182.59;4125314;28;20640;-82
2022/07/27 08:07:55;;;;;;;8.07;5.60;;;;;;;24.72;67.82;98180.66;4108308;28;20635;-82
2022/07/27 08:09:58;;;;;;;5.97;5.37;;;;;;;24.78;67.66;98174.53;4123491;28;20648;-82
2022/07/27 08:12:01;;;;;;;5.70;5.20;;;;;;;24.97;66.08;98186.41;4108537;28;20693;-82
2022/07/27 08:14:04;;;;;;;5.83;5.30;;;;;;;25.14;65.62;98181.47;4127359;28;20663;-82
2022/07/27 08:16:09;;;;;;;5.50;5.10;;;;;;;25.33;65.11;98180.81;4126517;28;20626;-82
2022/07/27 08:18:12;;;;;;;6.23;5.60;;;;;;;25.37;66.49;98179.41;4108685;28;20646;-82
2022/07/27 08:20:16;;;;;;;6.20;5.27;;;;;;;25.76;65.92;98179.69;4123662;28;20644;-82
2022/07/27 08:22:19;;;;;;;5.70;5.10;;;;;;;25.97;64.31;98182.28;4111986;28;21022;-82
2022/07/27 08:24:22;;;;;;;6.00;5.40;;;;;;;26.10;64.66;98184.00;4127938;28;20724;-82
2022/07/27 08:26:25;;;;;;;5.70;5.20;;;;;;;26.13;65.72;98180.09;4125158;28;20704;-82
2022/07/27 08:28:28;;;;;;;8.70;5.63;;;;;;;26.17;64.71;98182.16;4125738;28;20638;-82
2022/07/27 08:30:39;;;;;;;5.80;5.30;;;;;;;26.32;65.93;98174.84;4107163;28;20673;-82
2022/07/27 08:32:51;;;;;;;6.30;5.80;;;;;;;26.76;64.23;98181.38;4123049;28;20635;-82
2022/07/27 08:34:55;;;;;;;5.83;5.33;;;;;;;26.87;62.52;98178.09;4103020;28;20775;-82
2022/07/27 08:36:58;;;;;;;7.10;5.90;;;;;;;26.83;62.59;98176.84;4126054;28;21062;-82
2022/07/27 08:39:07;;;;;;;5.53;5.03;;;;;;;26.82;63.44;98179.72;4114050;28;20632;-82
2022/07/27 08:41:10;;;;;;;5.80;5.20;;;;;;;26.80;62.65;98176.44;4108412;28;20682;-82
2022/07/27 08:43:15;;;;;;;6.00;5.40;;;;;;;26.67;63.79;98181.75;4119702;28;21058;-82
2022/07/27 08:45:27;;;;;;;6.37;5.50;;;;;;;26.62;63.30;98178.84;4106396;28;20628;-82
2022/07/27 08:47:30;;;;;;;6.00;5.30;;;;;;;26.67;63.53;98171.03;4111973;28;20755;-82
2022/07/27 08:49:35;;;;;;;5.50;5.00;;;;;;;26.81;63.29;98173.56;4107983;28;20991;-82
2022/07/27 08:51:46;;;;;;;5.60;5.10;;;;;;;26.81;62.83;98175.41;4128610;28;20752;-82
2022/07/27 08:53:50;;;;;;;6.30;5.73;;;;;;;26.70;62.12;98176.84;4128459;28;20669;-82
2022/07/27 08:55:56;;;;;;;6.63;6.00;;;;;;;26.56;63.53;98174.31;4125571;28;20992;-82
2022/07/27 08:57:59;;;;;;;5.57;5.17;;;;;;;26.61;63.24;98161.13;4109270;28;20652;-82
2022/07/27 09:00:06;;;;;;;7.77;5.67;;;;;;;26.78;61.65;98165.91;4122322;28;20663;-81
2022/07/27 09:02:11;;;;;;;6.63;5.60;;;;;;;27.02;62.47;98169.88;4109995;28;20739;-81
2022/07/27 09:04:14;;;;;;;5.77;5.23;;;;;;;26.91;61.16;98181.22;4104258;28;20625;-81
2022/07/27 09:06:43;;;;;;;8.00;5.20;;;;;;;26.72;61.29;98168.59;4125328;28;21560;-81
2022/07/27 09:08:58;;;;;;;5.63;5.13;;;;;;;26.77;61.49;98168.81;4108208;28;20766;-81
2022/07/27 09:11:02;;;;;;;5.80;4.97;;;;;;;26.82;61.81;98163.66;4127582;28;20635;-81
2022/07/27 09:13:21;;;;;;;5.83;5.33;;;;;;;27.06;61.57;98167.44;4129954;28;20633;-81
2022/07/27 09:15:24;;;;;;;7.00;6.30;;;;;;;27.00;60.79;98161.22;4108274;28;21458;-81
2022/07/27 09:17:38;;;;;;;6.37;5.80;;;;;;;26.92;60.72;98161.44;4108500;28;20748;-81
2022/07/27 09:19:57;;;;;;;6.37;5.20;;;;;;;26.93;61.29;98163.06;4111990;28;20637;-81
2022/07/27 09:22:02;;;;;;;9.17;5.33;;;;;;;26.87;62.94;98156.66;4127075;28;20619;-81
2022/07/27 09:24:07;;;;;;;5.73;5.23;;;;;;;26.79;61.09;98156.03;4108729;28;20628;-81
2022/07/27 09:26:30;;;;;;;6.30;5.57;;;;;;;26.64;60.81;98152.69;4123845;28;21193;-81
2022/07/27 09:28:36;;;;;;;5.90;5.40;;;;;;;26.62;61.88;98147.53;4113889;28;20640;-82
2022/07/27 09:30:42;;;;;;;6.23;5.63;;;;;;;26.56;60.46;98145.69;4123336;28;20638;-81
2022/07/27 09:32:54;;;;;;;5.47;5.03;;;;;;;26.48;61.33;98150.41;4113607;28;20633;-81
2022/07/27 09:34:58;;;;;;;7.83;5.33;;;;;;;26.34;61.25;98151.41;4107409;28;20660;-81
2022/07/27 09:37:05;;;;;;;10.37;6.07;;;;;;;25.98;60.87;98146.47;4105466;28;20651;-81
2022/07/27 09:39:11;;;;;;;6.10;5.40;;;;;;;25.86;61.71;98142.72;4107168;28;20647;-80
2022/07/27 09:41:14;;;;;;;6.33;5.63;;;;;;;26.09;62.88;98150.25;4121949;28;20685;-81
2022/07/27 09:43:18;;;;;;;7.10;5.50;;;;;;;26.58;62.48;98150.84;4123517;28;20670;-81
2022/07/27 09:45:43;;;;;;;6.10;5.50;;;;;;;26.98;62.76;98152.59;4128662;28;20726;-81
2022/07/27 09:47:53;;;;;;;5.63;5.13;;;;;;;27.11;60.83;98153.41;4112770;28;21091;-81
2022/07/27 09:49:58;;;;;;;5.60;5.10;;;;;;;27.31;61.29;98149.69;4108876;28;20650;-80
2022/07/27 09:52:03;;;;;;;5.20;4.77;;;;;;;27.61;61.46;98153.59;4109834;28;22753;-84